sensor_id;sensor_type;location;lat;lon;timestamp;pressure;altitude;pressure_sealevel;temperature;humidity
68654;BME280;55636;51.108;13.622;2023-05-20T00:00:38;101129.72;;;13.24;53.47
68654;BME280;55636;51.108;13.622;2023-05-20T00:01:40;101118.63;;;13.24;53.52
68654;BME280;55636;51.108;13.622;2023-05-20T00:02:43;101111.66;;;13.22;53.50
68654;BME280;55636;51.108;13.622;2023-05-20T00:03:45;101121.09;;;13.21;53.79
68654;BME280;55636;51.108;13.622;2023-05-20T00:04:49;101128.81;;;13.18;53.53
68654;BME280;55636;51.108;13.622;2023-05-20T00:05:51;101124.63;;;13.16;53.87
68654;BME280;55636;51.108;13.622;2023-05-20T00:06:54;101113.53;;;13.16;53.64
68654;BME280;55636;51.108;13.622;2023-05-20T00:07:56;101117.16;;;13.16;53.58
68654;BME280;55636;51.108;13.622;2023-05-20T00:08:59;101119.94;;;13.16;53.87
68654;BME280;55636;51.108;13.622;2023-05-20T00:10:01;101125.75;;;13.15;53.61
68654;BME280;55636;51.108;13.622;2023-05-20T00:11:04;101124.63;;;13.16;53.73
68654;BME280;55636;51.108;13.622;2023-05-20T00:12:07;101119.34;;;13.14;53.90
68654;BME280;55636;51.108;13.622;2023-05-20T00:13:10;101111.28;;;13.13;53.78
68654;BME280;55636;51.108;13.622;2023-05-20T00:14:12;101125.75;;;13.15;53.90
68654;BME280;55636;51.108;13.622;2023-05-20T00:15:16;101122.38;;;13.13;54.04
68654;BME280;55636;51.108;13.622;2023-05-20T00:16:18;101124.31;;;13.12;53.83
68654;BME280;55636;51.108;13.622;2023-05-20T00:17:21;101121.56;;;13.12;54.08
68654;BME280;55636;51.108;13.622;2023-05-20T00:18:23;101121.28;;;13.14;53.71
68654;BME280;55636;51.108;13.622;2023-05-20T00:19:25;101119.88;;;13.11;54.19
68654;BME280;55636;51.108;13.622;2023-05-20T00:20:31;101117.63;;;13.08;54.18
68654;BME280;55636;51.108;13.622;2023-05-20T00:21:36;101125.94;;;13.08;54.10
68654;BME280;55636;51.108;13.622;2023-05-20T00:22:39;101119.81;;;13.06;54.32
68654;BME280;55636;51.108;13.622;2023-05-20T00:23:42;101117.31;;;13.05;54.40
68654;BME280;55636;51.108;13.622;2023-05-20T00:24:44;101119.47;;;13.03;54.18
68654;BME280;55636;51.108;13.622;2023-05-20T00:25:47;101124.19;;;13.02;54.42
68654;BME280;55636;51.108;13.622;2023-05-20T00:26:49;101113.38;;;13.00;54.14
68654;BME280;55636;51.108;13.622;2023-05-20T00:27:52;101110.00;;;12.98;54.50
68654;BME280;55636;51.108;13.622;2023-05-20T00:28:54;101110.84;;;12.99;54.50
68654;BME280;55636;51.108;13.622;2023-05-20T00:29:57;101105.28;;;12.99;54.23
68654;BME280;55636;51.108;13.622;2023-05-20T00:30:59;101106.41;;;12.98;54.43
68654;BME280;55636;51.108;13.622;2023-05-20T00:32:02;101105.56;;;12.97;54.54
68654;BME280;55636;51.108;13.622;2023-05-20T00:33:05;101112.78;;;12.98;54.23
68654;BME280;55636;51.108;13.622;2023-05-20T00:34:08;101106.91;;;12.95;54.53
68654;BME280;55636;51.108;13.622;2023-05-20T00:35:11;101107.75;;;12.95;54.32
68654;BME280;55636;51.108;13.622;2023-05-20T00:36:15;101107.44;;;12.92;54.70
68654;BME280;55636;51.108;13.622;2023-05-20T00:37:17;101108.53;;;12.91;54.63
68654;BME280;55636;51.108;13.622;2023-05-20T00:38:19;101108.53;;;12.91;54.51
68654;BME280;55636;51.108;13.622;2023-05-20T00:39:22;101103.81;;;12.91;54.80
68654;BME280;55636;51.108;13.622;2023-05-20T00:40:26;101104.94;;;12.90;54.78
68654;BME280;55636;51.108;13.622;2023-05-20T00:41:28;101106.84;;;12.90;54.60
68654;BME280;55636;51.108;13.622;2023-05-20T00:42:31;101104.06;;;12.90;54.62
68654;BME280;55636;51.108;13.622;2023-05-20T00:43:33;101104.94;;;12.90;54.69
68654;BME280;55636;51.108;13.622;2023-05-20T00:44:35;101109.63;;;12.90;54.79
68654;BME280;55636;51.108;13.622;2023-05-20T00:45:38;101106.84;;;12.90;54.70
68654;BME280;55636;51.108;13.622;2023-05-20T00:46:41;101107.94;;;12.89;54.52
68654;BME280;55636;51.108;13.622;2023-05-20T00:47:43;101106.84;;;12.90;54.51
68654;BME280;55636;51.108;13.622;2023-05-20T00:48:46;101108.78;;;12.89;54.75
68654;BME280;55636;51.108;13.622;2023-05-20T00:49:49;101103.25;;;12.89;54.66
68654;BME280;55636;51.108;13.622;2023-05-20T00:50:53;101108.19;;;12.87;54.84
68654;BME280;55636;51.108;13.622;2023-05-20T00:51:56;101107.09;;;12.88;54.93
68654;BME280;55636;51.108;13.622;2023-05-20T00:52:58;101106.28;;;12.88;54.76
68654;BME280;55636;51.108;13.622;2023-05-20T00:54:01;101110.97;;;12.87;54.90
68654;BME280;55636;51.108;13.622;2023-05-20T00:55:04;101107.09;;;12.88;54.81
68654;BME280;55636;51.108;13.622;2023-05-20T00:56:07;101114.88;;;12.86;54.76
68654;BME280;55636;51.108;13.622;2023-05-20T00:57:11;101107.63;;;12.85;54.81
68654;BME280;55636;51.108;13.622;2023-05-20T00:58:14;101108.72;;;12.84;54.91
68654;BME280;55636;51.108;13.622;2023-05-20T00:59:17;101113.19;;;12.85;54.77
68654;BME280;55636;51.108;13.622;2023-05-20T01:00:19;101112.59;;;12.83;55.10
68654;BME280;55636;51.108;13.622;2023-05-20T01:01:22;101110.91;;;12.82;54.93
68654;BME280;55636;51.108;13.622;2023-05-20T01:02:24;101105.63;;;12.80;55.10
68654;BME280;55636;51.108;13.622;2023-05-20T01:03:28;101115.63;;;12.81;55.13
68654;BME280;55636;51.108;13.622;2023-05-20T01:04:32;101112.84;;;12.81;55.05
68654;BME280;55636;51.108;13.622;2023-05-20T01:05:34;101111.16;;;12.80;54.90
68654;BME280;55636;51.108;13.622;2023-05-20T01:06:40;101103.94;;;12.79;55.12
68654;BME280;55636;51.108;13.622;2023-05-20T01:07:43;101101.16;;;12.79;55.16
68654;BME280;55636;51.108;13.622;2023-05-20T01:08:45;101105.88;;;12.79;55.09
68654;BME280;55636;51.108;13.622;2023-05-20T01:09:48;101101.16;;;12.79;54.89
68654;BME280;55636;51.108;13.622;2023-05-20T01:10:57;101106.72;;;12.79;54.94
68654;BME280;55636;51.108;13.622;2023-05-20T01:12:17;101105.06;;;12.78;54.81
68654;BME280;55636;51.108;13.622;2023-05-20T01:13:22;101104.19;;;12.78;54.80
68654;BME280;55636;51.108;13.622;2023-05-20T01:14:36;101102.28;;;12.78;55.17
68654;BME280;55636;51.108;13.622;2023-05-20T01:15:42;101105.06;;;12.78;55.12
68654;BME280;55636;51.108;13.622;2023-05-20T01:16:48;101108.91;;;12.77;54.96
68654;BME280;55636;51.108;13.622;2023-05-20T01:17:56;101103.38;;;12.77;54.96
68654;BME280;55636;51.108;13.622;2023-05-20T01:19:06;101102.50;;;12.77;55.11
68654;BME280;55636;51.108;13.622;2023-05-20T01:20:16;101109.19;;;12.76;54.96
68654;BME280;55636;51.108;13.622;2023-05-20T01:21:20;101105.56;;;12.75;55.25
68654;BME280;55636;51.108;13.622;2023-05-20T01:22:25;101108.31;;;12.75;55.00
68654;BME280;55636;51.108;13.622;2023-05-20T01:23:37;101106.63;;;12.74;55.00
68654;BME280;55636;51.108;13.622;2023-05-20T01:24:44;101110.53;;;12.73;55.21
68654;BME280;55636;51.108;13.622;2023-05-20T01:25:47;101105.00;;;12.73;55.16
68654;BME280;55636;51.108;13.622;2023-05-20T01:26:49;101108.00;;;12.72;55.24
68654;BME280;55636;51.108;13.622;2023-05-20T01:27:53;101099.94;;;12.70;55.31
68654;BME280;55636;51.108;13.622;2023-05-20T01:28:57;101099.09;;;12.70;55.32
68654;BME280;55636;51.108;13.622;2023-05-20T01:30:05;101099.09;;;12.70;55.37
68654;BME280;55636;51.108;13.622;2023-05-20T01:31:22;101108.25;;;12.70;55.44
68654;BME280;55636;51.108;13.622;2023-05-20T01:32:33;101109.34;;;12.69;55.64
68654;BME280;55636;51.108;13.622;2023-05-20T01:33:39;101106.84;;;12.67;55.50
68654;BME280;55636;51.108;13.622;2023-05-20T01:34:42;101104.06;;;12.67;55.63
68654;BME280;55636;51.108;13.622;2023-05-20T01:35:49;101106.84;;;12.67;55.73
68654;BME280;55636;51.108;13.622;2023-05-20T01:36:52;101106.00;;;12.67;55.46
68654;BME280;55636;51.108;13.622;2023-05-20T01:37:57;101106.84;;;12.67;55.56
68654;BME280;55636;51.108;13.622;2023-05-20T01:39:01;101109.88;;;12.66;55.60
68654;BME280;55636;51.108;13.622;2023-05-20T01:40:06;101109.88;;;12.66;55.62
68654;BME280;55636;51.108;13.622;2023-05-20T01:41:10;101109.03;;;12.65;55.52
68654;BME280;55636;51.108;13.622;2023-05-20T01:42:15;101107.34;;;12.64;55.74
68654;BME280;55636;51.108;13.622;2023-05-20T01:43:19;101101.81;;;12.64;55.70
68654;BME280;55636;51.108;13.622;2023-05-20T01:44:22;101101.81;;;12.64;55.45
68654;BME280;55636;51.108;13.622;2023-05-20T01:45:25;101107.34;;;12.64;55.82
68654;BME280;55636;51.108;13.622;2023-05-20T01:46:31;101115.66;;;12.64;55.68
68654;BME280;55636;51.108;13.622;2023-05-20T01:47:34;101114.00;;;12.63;55.83
68654;BME280;55636;51.108;13.622;2023-05-20T01:48:37;101112.31;;;12.62;55.68
68654;BME280;55636;51.108;13.622;2023-05-20T01:49:39;101115.34;;;12.61;55.77
68654;BME280;55636;51.108;13.622;2023-05-20T01:50:42;101117.25;;;12.60;55.76
68654;BME280;55636;51.108;13.622;2023-05-20T01:51:46;101120.03;;;12.60;55.76
68654;BME280;55636;51.108;13.622;2023-05-20T01:52:49;101120.28;;;12.59;56.01
68654;BME280;55636;51.108;13.622;2023-05-20T01:53:51;101110.03;;;12.59;55.92
68654;BME280;55636;51.108;13.622;2023-05-20T01:54:54;101111.97;;;12.59;55.97
68654;BME280;55636;51.108;13.622;2023-05-20T01:55:56;101113.88;;;12.58;55.69
68654;BME280;55636;51.108;13.622;2023-05-20T01:56:59;101106.66;;;12.57;55.93
68654;BME280;55636;51.108;13.622;2023-05-20T01:58:02;101111.13;;;12.58;55.97
68654;BME280;55636;51.108;13.622;2023-05-20T01:59:05;101108.59;;;12.57;55.86
68654;BME280;55636;51.108;13.622;2023-05-20T02:00:07;101105.84;;;12.57;56.16
68654;BME280;55636;51.108;13.622;2023-05-20T02:01:19;101116.91;;;12.57;55.76
68654;BME280;55636;51.108;13.622;2023-05-20T02:02:22;101116.09;;;12.56;55.95
68654;BME280;55636;51.108;13.622;2023-05-20T02:03:25;101108.59;;;12.57;56.34
68654;BME280;55636;51.108;13.622;2023-05-20T02:04:28;101103.88;;;12.57;56.16
68654;BME280;55636;51.108;13.622;2023-05-20T02:05:31;101107.78;;;12.56;56.14
68654;BME280;55636;51.108;13.622;2023-05-20T02:06:34;101112.47;;;12.56;55.99
68654;BME280;55636;51.108;13.622;2023-05-20T02:07:37;101107.78;;;12.56;56.15
68654;BME280;55636;51.108;13.622;2023-05-20T02:08:39;101106.91;;;12.56;56.11
68654;BME280;55636;51.108;13.622;2023-05-20T02:09:42;101102.47;;;12.55;55.98
68654;BME280;55636;51.108;13.622;2023-05-20T02:10:47;101096.09;;;12.54;56.15
68654;BME280;55636;51.108;13.622;2023-05-20T02:11:49;101101.63;;;12.54;56.20
68654;BME280;55636;51.108;13.622;2023-05-20T02:12:52;101097.78;;;12.55;56.01
68654;BME280;55636;51.108;13.622;2023-05-20T02:13:54;101104.41;;;12.54;56.33
68654;BME280;55636;51.108;13.622;2023-05-20T02:14:57;101103.59;;;12.54;56.24
68654;BME280;55636;51.108;13.622;2023-05-20T02:15:59;101110.22;;;12.53;56.04
68654;BME280;55636;51.108;13.622;2023-05-20T02:17:02;101102.72;;;12.53;56.15
68654;BME280;55636;51.108;13.622;2023-05-20T02:18:07;101109.34;;;12.52;56.19
68654;BME280;55636;51.108;13.622;2023-05-20T02:19:10;101106.03;;;12.50;56.27
68654;BME280;55636;51.108;13.622;2023-05-20T02:20:14;101105.44;;;12.48;56.27
68654;BME280;55636;51.108;13.622;2023-05-20T02:21:17;101103.50;;;12.48;56.29
68654;BME280;55636;51.108;13.622;2023-05-20T02:22:19;101110.13;;;12.47;56.42
68654;BME280;55636;51.108;13.622;2023-05-20T02:23:22;101102.91;;;12.46;56.44
68654;BME280;55636;51.108;13.622;2023-05-20T02:24:24;101103.75;;;12.47;56.59
68654;BME280;55636;51.108;13.622;2023-05-20T02:25:28;101098.47;;;12.45;56.47
68654;BME280;55636;51.108;13.622;2023-05-20T02:26:30;101104.00;;;12.45;56.56
68654;BME280;55636;51.108;13.622;2023-05-20T02:27:33;101104.00;;;12.45;56.23
68654;BME280;55636;51.108;13.622;2023-05-20T02:28:35;101101.22;;;12.45;56.34
68654;BME280;55636;51.108;13.622;2023-05-20T02:29:42;101100.66;;;12.43;56.53
68654;BME280;55636;51.108;13.622;2023-05-20T02:30:45;101107.63;;;12.46;56.54
68654;BME280;55636;51.108;13.622;2023-05-20T02:31:48;101106.22;;;12.43;56.47
68654;BME280;55636;51.108;13.622;2023-05-20T02:32:50;101112.84;;;12.42;56.64
68654;BME280;55636;51.108;13.622;2023-05-20T02:33:53;101098.97;;;12.42;56.81
68654;BME280;55636;51.108;13.622;2023-05-20T02:34:56;101112.56;;;12.44;56.73
68654;BME280;55636;51.108;13.622;2023-05-20T02:35:58;101110.31;;;12.41;56.62
68654;BME280;55636;51.108;13.622;2023-05-20T02:37:00;101105.03;;;12.39;56.84
68654;BME280;55636;51.108;13.622;2023-05-20T02:38:03;101103.94;;;12.40;56.66
68654;BME280;55636;51.108;13.622;2023-05-20T02:39:05;101105.28;;;12.38;56.79
68654;BME280;55636;51.108;13.622;2023-05-20T02:40:09;101099.72;;;12.38;56.67
68654;BME280;55636;51.108;13.622;2023-05-20T02:41:13;101107.81;;;12.39;56.77
68654;BME280;55636;51.108;13.622;2023-05-20T02:42:17;101104.19;;;12.39;56.72
68654;BME280;55636;51.108;13.622;2023-05-20T02:43:20;101108.03;;;12.38;56.65
68654;BME280;55636;51.108;13.622;2023-05-20T02:44:23;101108.03;;;12.38;56.76
68654;BME280;55636;51.108;13.622;2023-05-20T02:45:25;101102.75;;;12.36;57.01
68654;BME280;55636;51.108;13.622;2023-05-20T02:46:28;101109.38;;;12.35;57.14
68654;BME280;55636;51.108;13.622;2023-05-20T02:47:31;101093.63;;;12.35;56.84
68654;BME280;55636;51.108;13.622;2023-05-20T02:48:34;101089.44;;;12.33;56.95
68654;BME280;55636;51.108;13.622;2023-05-20T02:49:37;101096.66;;;12.34;57.00
68654;BME280;55636;51.108;13.622;2023-05-20T02:50:39;101106.88;;;12.33;56.96
68654;BME280;55636;51.108;13.622;2023-05-20T02:51:42;101096.88;;;12.32;57.04
68654;BME280;55636;51.108;13.622;2023-05-20T02:52:44;101096.88;;;12.32;56.97
68654;BME280;55636;51.108;13.622;2023-05-20T02:53:47;101089.69;;;12.31;56.77
68654;BME280;55636;51.108;13.622;2023-05-20T02:54:50;101084.38;;;12.30;57.07
68654;BME280;55636;51.108;13.622;2023-05-20T02:55:56;101085.25;;;12.30;56.88
68654;BME280;55636;51.108;13.622;2023-05-20T02:56:58;101090.19;;;12.28;57.31
68654;BME280;55636;51.108;13.622;2023-05-20T02:58:01;101091.28;;;12.27;57.08
68654;BME280;55636;51.108;13.622;2023-05-20T02:59:07;101081.31;;;12.26;57.23
68654;BME280;55636;51.108;13.622;2023-05-20T03:00:09;101084.06;;;12.26;57.13
68654;BME280;55636;51.108;13.622;2023-05-20T03:01:12;101086.00;;;12.26;57.21
68654;BME280;55636;51.108;13.622;2023-05-20T03:02:15;101083.22;;;12.26;57.22
68654;BME280;55636;51.108;13.622;2023-05-20T03:03:17;101079.28;;;12.22;57.46
68654;BME280;55636;51.108;13.622;2023-05-20T03:04:19;101077.34;;;12.22;57.52
68654;BME280;55636;51.108;13.622;2023-05-20T03:05:23;101078.19;;;12.23;57.40
68654;BME280;55636;51.108;13.622;2023-05-20T03:06:25;101077.34;;;12.22;57.38
68654;BME280;55636;51.108;13.622;2023-05-20T03:07:33;101074.56;;;12.22;57.43
68654;BME280;55636;51.108;13.622;2023-05-20T03:08:39;101068.47;;;12.20;57.46
68654;BME280;55636;51.108;13.622;2023-05-20T03:09:43;101068.72;;;12.18;57.57
68654;BME280;55636;51.108;13.622;2023-05-20T03:10:46;101063.19;;;12.18;57.27
68654;BME280;55636;51.108;13.622;2023-05-20T03:11:49;101057.66;;;12.18;57.27
68654;BME280;55636;51.108;13.622;2023-05-20T03:12:51;101065.97;;;12.18;57.53
68654;BME280;55636;51.108;13.622;2023-05-20T03:13:53;101059.28;;;12.19;57.26
68654;BME280;55636;51.108;13.622;2023-05-20T03:14:57;101056.78;;;12.18;57.63
68654;BME280;55636;51.108;13.622;2023-05-20T03:16:00;101057.03;;;12.16;57.61
68654;BME280;55636;51.108;13.622;2023-05-20T03:17:03;101057.03;;;12.16;57.71
68654;BME280;55636;51.108;13.622;2023-05-20T03:18:06;101059.81;;;12.16;57.66
68654;BME280;55636;51.108;13.622;2023-05-20T03:19:10;101069.22;;;12.15;57.35
68654;BME280;55636;51.108;13.622;2023-05-20T03:20:13;101073.66;;;12.16;57.50
68654;BME280;55636;51.108;13.622;2023-05-20T03:21:18;101069.22;;;12.15;57.55
68654;BME280;55636;51.108;13.622;2023-05-20T03:22:20;101070.34;;;12.14;57.52
68654;BME280;55636;51.108;13.622;2023-05-20T03:23:22;101070.34;;;12.14;57.58
68654;BME280;55636;51.108;13.622;2023-05-20T03:24:27;101071.41;;;12.13;57.72
68654;BME280;55636;51.108;13.622;2023-05-20T03:25:30;101072.25;;;12.14;57.72
68654;BME280;55636;51.108;13.622;2023-05-20T03:26:32;101075.00;;;12.14;57.93
68654;BME280;55636;51.108;13.622;2023-05-20T03:27:39;101068.66;;;12.13;57.97
68654;BME280;55636;51.108;13.622;2023-05-20T03:28:41;101076.09;;;12.13;57.76
68654;BME280;55636;51.108;13.622;2023-05-20T03:29:45;101073.34;;;12.13;57.85
68654;BME280;55636;51.108;13.622;2023-05-20T03:30:49;101072.50;;;12.12;57.72
68654;BME280;55636;51.108;13.622;2023-05-20T03:31:51;101072.50;;;12.12;57.84
68654;BME280;55636;51.108;13.622;2023-05-20T03:32:55;101068.91;;;12.12;57.91
68654;BME280;55636;51.108;13.622;2023-05-20T03:33:59;101075.28;;;12.12;57.97
68654;BME280;55636;51.108;13.622;2023-05-20T03:35:03;101075.00;;;12.14;57.91
68654;BME280;55636;51.108;13.622;2023-05-20T03:36:07;101076.94;;;12.13;57.86
68654;BME280;55636;51.108;13.622;2023-05-20T03:37:10;101078.88;;;12.13;57.79
68654;BME280;55636;51.108;13.622;2023-05-20T03:38:12;101069.47;;;12.14;57.76
68654;BME280;55636;51.108;13.622;2023-05-20T03:39:14;101077.78;;;12.14;58.03
68654;BME280;55636;51.108;13.622;2023-05-20T03:40:19;101079.72;;;12.13;58.06
68654;BME280;55636;51.108;13.622;2023-05-20T03:41:25;101078.63;;;12.14;57.86
68654;BME280;55636;51.108;13.622;2023-05-20T03:42:29;101071.16;;;12.15;57.78
68654;BME280;55636;51.108;13.622;2023-05-20T03:43:32;101073.09;;;12.14;57.84
68654;BME280;55636;51.108;13.622;2023-05-20T03:44:36;101079.47;;;12.15;58.02
68654;BME280;55636;51.108;13.622;2023-05-20T03:45:38;101068.38;;;12.15;58.06
68654;BME280;55636;51.108;13.622;2023-05-20T03:46:42;101080.88;;;12.17;58.09
68654;BME280;55636;51.108;13.622;2023-05-20T03:47:46;101080.06;;;12.17;58.25
68654;BME280;55636;51.108;13.622;2023-05-20T03:48:51;101071.75;;;12.17;57.91
68654;BME280;55636;51.108;13.622;2023-05-20T03:49:53;101076.19;;;12.18;57.94
68654;BME280;55636;51.108;13.622;2023-05-20T03:50:56;101076.19;;;12.18;58.00
68654;BME280;55636;51.108;13.622;2023-05-20T03:51:58;101083.41;;;12.19;58.07
68654;BME280;55636;51.108;13.622;2023-05-20T03:53:01;101084.22;;;12.19;58.15
68654;BME280;55636;51.108;13.622;2023-05-20T03:54:10;101083.13;;;12.21;57.96
68654;BME280;55636;51.108;13.622;2023-05-20T03:55:14;101087.59;;;12.22;58.06
68654;BME280;55636;51.108;13.622;2023-05-20T03:56:17;101086.75;;;12.21;58.15
68654;BME280;55636;51.108;13.622;2023-05-20T03:57:20;101087.59;;;12.22;58.08
68654;BME280;55636;51.108;13.622;2023-05-20T03:58:22;101082.88;;;12.22;58.07
68654;BME280;55636;51.108;13.622;2023-05-20T03:59:24;101088.19;;;12.24;58.09
68654;BME280;55636;51.108;13.622;2023-05-20T04:00:29;101084.56;;;12.23;58.26
68654;BME280;55636;51.108;13.622;2023-05-20T04:01:33;101081.53;;;12.25;58.02
68654;BME280;55636;51.108;13.622;2023-05-20T04:02:36;101085.41;;;12.24;57.96
68654;BME280;55636;51.108;13.622;2023-05-20T04:03:40;101084.31;;;12.25;58.02
68654;BME280;55636;51.108;13.622;2023-05-20T04:04:46;101087.06;;;12.25;58.02
68654;BME280;55636;51.108;13.622;2023-05-20T04:05:49;101085.16;;;12.25;58.27
68654;BME280;55636;51.108;13.622;2023-05-20T04:06:54;101083.22;;;12.26;58.11
68654;BME280;55636;51.108;13.622;2023-05-20T04:08:01;101082.13;;;12.27;58.20
68654;BME280;55636;51.108;13.622;2023-05-20T04:09:06;101080.19;;;12.27;57.95
68654;BME280;55636;51.108;13.622;2023-05-20T04:10:09;101081.88;;;12.28;58.16
68654;BME280;55636;51.108;13.622;2023-05-20T04:11:12;101085.50;;;12.29;58.16
68654;BME280;55636;51.108;13.622;2023-05-20T04:12:14;101089.09;;;12.29;58.07
68654;BME280;55636;51.108;13.622;2023-05-20T04:13:17;101079.97;;;12.29;58.05
68654;BME280;55636;51.108;13.622;2023-05-20T04:14:19;101079.69;;;12.30;58.15
68654;BME280;55636;51.108;13.622;2023-05-20T04:15:22;101074.16;;;12.30;58.21
68654;BME280;55636;51.108;13.622;2023-05-20T04:16:29;101081.38;;;12.31;58.05
68654;BME280;55636;51.108;13.622;2023-05-20T04:17:32;101070.31;;;12.31;58.13
68654;BME280;55636;51.108;13.622;2023-05-20T04:18:36;101073.06;;;12.31;58.34
68654;BME280;55636;51.108;13.622;2023-05-20T04:19:40;101069.44;;;12.31;58.17
68654;BME280;55636;51.108;13.622;2023-05-20T04:20:43;101074.72;;;12.32;57.96
68654;BME280;55636;51.108;13.622;2023-05-20T04:21:47;101074.72;;;12.32;58.31
68654;BME280;55636;51.108;13.622;2023-05-20T04:22:49;101079.19;;;12.33;58.18
68654;BME280;55636;51.108;13.622;2023-05-20T04:23:53;101076.41;;;12.33;57.98
68654;BME280;55636;51.108;13.622;2023-05-20T04:24:56;101071.47;;;12.35;58.22
68654;BME280;55636;51.108;13.622;2023-05-20T04:26:00;101079.78;;;12.35;57.99
68654;BME280;55636;51.108;13.622;2023-05-20T04:27:05;101072.28;;;12.36;58.29
68654;BME280;55636;51.108;13.622;2023-05-20T04:28:08;101079.50;;;12.37;58.29
68654;BME280;55636;51.108;13.622;2023-05-20T04:29:11;101080.59;;;12.36;58.18
68654;BME280;55636;51.108;13.622;2023-05-20T04:30:15;101085.06;;;12.37;58.22
68654;BME280;55636;51.108;13.622;2023-05-20T04:31:21;101070.94;;;12.39;57.99
68654;BME280;55636;51.108;13.622;2023-05-20T04:32:28;101085.66;;;12.39;58.10
68654;BME280;55636;51.108;13.622;2023-05-20T04:33:32;101082.88;;;12.39;57.95
68654;BME280;55636;51.108;13.622;2023-05-20T04:34:35;101085.38;;;12.41;58.19
68654;BME280;55636;51.108;13.622;2023-05-20T04:35:38;101080.69;;;12.41;57.88
68654;BME280;55636;51.108;13.622;2023-05-20T04:36:43;101082.34;;;12.42;58.26
68654;BME280;55636;51.108;13.622;2023-05-20T04:37:46;101086.22;;;12.41;58.11
68654;BME280;55636;51.108;13.622;2023-05-20T04:38:49;101081.50;;;12.42;58.03
68654;BME280;55636;51.108;13.622;2023-05-20T04:39:52;101080.41;;;12.43;58.06
68654;BME280;55636;51.108;13.622;2023-05-20T04:40:55;101083.19;;;12.43;58.07
68654;BME280;55636;51.108;13.622;2023-05-20T04:42:01;101084.03;;;12.43;58.11
68654;BME280;55636;51.108;13.622;2023-05-20T04:43:04;101082.91;;;12.44;58.05
68654;BME280;55636;51.108;13.622;2023-05-20T04:44:07;101086.56;;;12.45;58.15
68654;BME280;55636;51.108;13.622;2023-05-20T04:45:11;101084.88;;;12.44;58.11
68654;BME280;55636;51.108;13.622;2023-05-20T04:46:15;101091.84;;;12.46;58.09
68654;BME280;55636;51.108;13.622;2023-05-20T04:47:18;101089.88;;;12.47;58.31
68654;BME280;55636;51.108;13.622;2023-05-20T04:48:20;101087.13;;;12.47;58.00
68654;BME280;55636;51.108;13.622;2023-05-20T04:49:25;101081.34;;;12.48;58.05
68654;BME280;55636;51.108;13.622;2023-05-20T04:50:28;101083.84;;;12.50;58.25
68654;BME280;55636;51.108;13.622;2023-05-20T04:51:30;101083.84;;;12.50;58.03
68654;BME280;55636;51.108;13.622;2023-05-20T04:52:33;101090.22;;;12.50;58.17
68654;BME280;55636;51.108;13.622;2023-05-20T04:53:35;101082.75;;;12.51;57.97
68654;BME280;55636;51.108;13.622;2023-05-20T04:54:38;101079.72;;;12.53;58.18
68654;BME280;55636;51.108;13.622;2023-05-20T04:55:41;101085.84;;;12.55;58.10
68654;BME280;55636;51.108;13.622;2023-05-20T04:56:44;101088.59;;;12.55;58.05
68654;BME280;55636;51.108;13.622;2023-05-20T04:57:48;101084.19;;;12.54;58.36
68654;BME280;55636;51.108;13.622;2023-05-20T04:58:51;101080.28;;;12.55;58.16
68654;BME280;55636;51.108;13.622;2023-05-20T04:59:54;101083.66;;;12.57;57.88
68654;BME280;55636;51.108;13.622;2023-05-20T05:01:01;101073.41;;;12.57;57.93
68654;BME280;55636;51.108;13.622;2023-05-20T05:02:04;101071.50;;;12.58;58.04
68654;BME280;55636;51.108;13.622;2023-05-20T05:03:07;101075.94;;;12.59;58.08
68654;BME280;55636;51.108;13.622;2023-05-20T05:04:09;101076.53;;;12.61;58.03
68654;BME280;55636;51.108;13.622;2023-05-20T05:05:12;101080.16;;;12.61;57.90
68654;BME280;55636;51.108;13.622;2023-05-20T05:06:15;101067.72;;;12.64;58.02
68654;BME280;55636;51.108;13.622;2023-05-20T05:07:17;101077.97;;;12.63;58.05
68654;BME280;55636;51.108;13.622;2023-05-20T05:08:20;101074.09;;;12.64;58.10
68654;BME280;55636;51.108;13.622;2023-05-20T05:09:25;101076.59;;;12.66;58.08
68654;BME280;55636;51.108;13.622;2023-05-20T05:10:27;101083.84;;;12.67;58.14
68654;BME280;55636;51.108;13.622;2023-05-20T05:11:30;101082.75;;;12.68;57.90
68654;BME280;55636;51.108;13.622;2023-05-20T05:12:33;101081.63;;;12.69;58.08
68654;BME280;55636;51.108;13.622;2023-05-20T05:13:35;101075.00;;;12.70;57.93
68654;BME280;55636;51.108;13.622;2023-05-20T05:14:38;101080.53;;;12.70;58.16
68654;BME280;55636;51.108;13.622;2023-05-20T05:15:40;101078.63;;;12.71;57.81
68654;BME280;55636;51.108;13.622;2023-05-20T05:16:43;101075.59;;;12.72;57.97
68654;BME280;55636;51.108;13.622;2023-05-20T05:17:45;101074.50;;;12.73;57.80
68654;BME280;55636;51.108;13.622;2023-05-20T05:18:48;101081.69;;;12.74;58.02
68654;BME280;55636;51.108;13.622;2023-05-20T05:19:52;101072.28;;;12.75;57.85
68654;BME280;55636;51.108;13.622;2023-05-20T05:21:05;101073.97;;;12.76;57.83
68654;BME280;55636;51.108;13.622;2023-05-20T05:22:09;101069.25;;;12.77;57.90
68654;BME280;55636;51.108;13.622;2023-05-20T05:23:12;101081.75;;;12.79;58.14
68654;BME280;55636;51.108;13.622;2023-05-20T05:24:16;101070.66;;;12.79;58.01
68654;BME280;55636;51.108;13.622;2023-05-20T05:25:18;101077.91;;;12.80;58.14
68654;BME280;55636;51.108;13.622;2023-05-20T05:26:21;101077.06;;;12.80;57.87
68654;BME280;55636;51.108;13.622;2023-05-20T05:27:24;101078.50;;;12.82;57.77
68654;BME280;55636;51.108;13.622;2023-05-20T05:28:26;101076.53;;;12.83;57.95